Time,TemperatureF,DewpointF,PressureIn,WindDirection,WindDirectionDegrees,WindSpeedMPH,WindSpeedGustMPH,Humidity,HourlyPrecipIn,Conditions,Clouds,dailyrainin,SoftwareType,DateUTC
2013-07-11 00:01:00,82.1,68.1,27.41,NE,45,0.0,0.9,63,0.00,,,0.00,WUHU216HW,2013-07-11 07:01:00,
2013-07-11 00:06:00,82.1,68.1,27.41,NE,45,0.0,0.4,63,0.00,,,0.00,WUHU216HW,2013-07-11 07:06:00,
2013-07-11 00:11:00,81.9,69.0,27.40,NE,45,0.0,0.0,65,0.00,,,0.00,WUHU216HW,2013-07-11 07:11:00,
2013-07-11 00:16:00,81.7,69.2,27.41,NE,45,0.0,0.0,66,0.01,,,0.01,WUHU216HW,2013-07-11 07:16:00,
2013-07-11 00:21:00,81.7,69.7,27.41,ENE,68,0.0,0.0,67,0.01,,,0.01,WUHU216HW,2013-07-11 07:21:00,
2013-07-11 00:26:00,81.5,69.9,27.41,ESE,113,0.0,0.0,68,0.01,,,0.01,WUHU216HW,2013-07-11 07:26:00,
2013-07-11 00:31:00,81.2,70.0,27.40,NE,45,0.0,0.0,69,0.02,,,0.02,WUHU216HW,2013-07-11 07:31:00,
2013-07-11 00:36:00,81.0,69.9,27.39,NNW,338,0.0,0.0,69,0.02,,,0.02,WUHU216HW,2013-07-11 07:36:00,
2013-07-11 00:41:00,80.5,70.2,27.38,North,0,0.7,0.9,71,0.03,,,0.02,WUHU216HW,2013-07-11 07:41:00,
2013-07-11 00:46:00,80.1,69.8,27.39,North,0,0.0,0.9,71,0.03,,,0.03,WUHU216HW,2013-07-11 07:46:00,
2013-07-11 00:51:00,79.9,69.7,27.40,SE,135,0.4,0.4,71,0.03,,,0.03,WUHU216HW,2013-07-11 07:51:00,
2013-07-11 00:56:00,79.9,70.1,27.40,NNE,23,0.2,0.7,72,0.04,,,0.04,WUHU216HW,2013-07-11 07:56:00,
2013-07-11 01:01:00,79.7,70.3,27.40,East,90,0.0,1.8,73,0.04,,,0.04,WUHU216HW,2013-07-11 08:01:00,
2013-07-11 01:06:00,79.6,70.1,27.40,East,90,0.0,1.8,73,0.04,,,0.04,WUHU216HW,2013-07-11 08:06:00,
2013-07-11 01:11:00,79.6,70.6,27.40,ENE,68,0.0,0.0,74,0.04,,,0.05,WUHU216HW,2013-07-11 08:11:00,
2013-07-11 01:16:00,79.4,70.4,27.41,ENE,68,0.0,0.0,74,0.04,,,0.05,WUHU216HW,2013-07-11 08:16:00,
2013-07-11 01:21:00,79.2,70.6,27.40,East,90,0.0,0.0,75,0.05,,,0.06,WUHU216HW,2013-07-11 08:21:00,
2013-07-11 01:26:00,79.2,70.6,27.41,SSE,158,0.2,0.2,75,0.04,,,0.06,WUHU216HW,2013-07-11 08:26:00,
2013-07-11 01:31:00,79.2,70.9,27.42,SSW,203,0.0,0.4,76,0.04,,,0.06,WUHU216HW,2013-07-11 08:31:00,
2013-07-11 01:36:00,79.2,70.9,27.42,SSE,158,0.0,0.4,76,0.04,,,0.06,WUHU216HW,2013-07-11 08:36:00,
2013-07-11 01:41:00,79.2,70.6,27.43,SSE,158,0.0,1.1,75,0.03,,,0.06,WUHU216HW,2013-07-11 08:41:00,
2013-07-11 01:46:00,79.0,70.4,27.42,SW,225,0.0,1.1,75,0.03,,,0.06,WUHU216HW,2013-07-11 08:46:00,
2013-07-11 01:51:00,79.0,70.4,27.42,WSW,248,0.0,0.0,75,0.03,,,0.06,WUHU216HW,2013-07-11 08:51:00,
2013-07-11 01:56:00,78.8,70.2,27.42,WSW,248,0.0,1.3,75,0.02,,,0.06,WUHU216HW,2013-07-11 08:56:00,
2013-07-11 02:01:00,78.5,69.8,27.43,West,270,0.4,1.8,75,0.02,,,0.06,WUHU216HW,2013-07-11 09:01:00,
2013-07-11 02:06:00,78.1,69.9,27.42,WNW,293,1.1,1.8,76,0.01,,,0.06,WUHU216HW,2013-07-11 09:06:00,
2013-07-11 02:11:00,77.6,69.4,27.42,NW,315,0.4,1.8,76,0.01,,,0.06,WUHU216HW,2013-07-11 09:11:00,
2013-07-11 02:16:00,77.2,69.0,27.41,North,0,1.1,1.8,76,0.01,,,0.07,WUHU216HW,2013-07-11 09:16:00,
2013-07-11 02:21:00,77.0,68.9,27.41,NNW,338,0.7,1.8,76,0.01,,,0.07,WUHU216HW,2013-07-11 09:21:00,
2013-07-11 02:26:00,77.0,68.9,27.41,North,0,0.9,1.3,76,0.01,,,0.07,WUHU216HW,2013-07-11 09:26:00,
2013-07-11 02:31:00,76.9,69.1,27.40,NNW,338,0.0,1.3,77,0.01,,,0.07,WUHU216HW,2013-07-11 09:31:00,
2013-07-11 02:36:00,76.9,69.5,27.39,NW,315,0.9,1.3,78,0.01,,,0.07,WUHU216HW,2013-07-11 09:36:00,
2013-07-11 02:41:00,76.7,69.3,27.38,NNW,338,0.4,1.8,78,0.01,,,0.07,WUHU216HW,2013-07-11 09:41:00,
2013-07-11 02:46:00,76.9,69.5,27.38,SSE,158,0.9,1.8,78,0.01,,,0.07,WUHU216HW,2013-07-11 09:46:00,
2013-07-11 02:51:00,76.9,69.5,27.38,SW,225,0.0,1.8,78,0.01,,,0.07,WUHU216HW,2013-07-11 09:51:00,
2013-07-11 02:56:00,76.7,69.3,27.37,SSE,158,0.4,1.8,78,0.01,,,0.07,WUHU216HW,2013-07-11 09:56:00,
2013-07-11 03:01:00,76.9,69.5,27.36,SW,225,0.0,1.3,78,0.01,,,0.07,WUHU216HW,2013-07-11 10:01:00,
2013-07-11 03:06:00,76.7,69.3,27.36,SSW,203,0.4,1.3,78,0.01,,,0.07,WUHU216HW,2013-07-11 10:06:00,
2013-07-11 03:11:00,76.3,68.9,27.36,SE,135,1.8,1.8,78,0.01,,,0.07,WUHU216HW,2013-07-11 10:11:00,
2013-07-11 03:16:00,76.1,68.8,27.36,North,0,0.0,1.8,78,0.00,,,0.07,WUHU216HW,2013-07-11 10:16:00,
2013-07-11 03:21:00,76.3,68.9,27.36,NNW,338,0.0,0.9,78,0.00,,,0.07,WUHU216HW,2013-07-11 10:21:00,
2013-07-11 03:26:00,76.3,68.9,27.36,SSE,158,0.4,0.4,78,0.00,,,0.07,WUHU216HW,2013-07-11 10:26:00,
2013-07-11 03:31:00,76.3,68.9,27.37,SE,135,0.0,0.4,78,0.00,,,0.07,WUHU216HW,2013-07-11 10:31:00,
2013-07-11 03:36:00,76.3,68.9,27.37,SW,225,0.0,0.4,78,0.00,,,0.07,WUHU216HW,2013-07-11 10:36:00,
2013-07-11 03:41:00,76.3,68.9,27.37,SE,135,0.2,0.4,78,0.00,,,0.07,WUHU216HW,2013-07-11 10:41:00,
2013-07-11 03:46:00,76.3,68.6,27.37,NE,45,0.0,0.4,77,0.00,,,0.07,WUHU216HW,2013-07-11 10:46:00,
2013-07-11 03:51:00,76.3,68.6,27.38,NE,45,0.0,0.4,77,0.00,,,0.07,WUHU216HW,2013-07-11 10:51:00,
2013-07-11 03:56:00,76.1,68.4,27.38,NE,45,0.0,0.4,77,0.00,,,0.07,WUHU216HW,2013-07-11 10:56:00,
2013-07-11 04:01:00,76.1,68.4,27.38,NNW,338,0.0,0.0,77,0.00,,,0.07,WUHU216HW,2013-07-11 11:01:00,
2013-07-11 04:06:00,76.1,68.4,27.39,NNW,338,0.0,0.0,77,0.00,,,0.07,WUHU216HW,2013-07-11 11:06:00,
2013-07-11 04:11:00,76.0,68.7,27.38,North,0,1.1,1.1,78,0.00,,,0.07,WUHU216HW,2013-07-11 11:11:00,
2013-07-11 04:16:00,75.6,68.3,27.39,NNW,338,0.0,1.1,78,0.00,,,0.07,WUHU216HW,2013-07-11 11:16:00,
2013-07-11 04:21:00,75.6,68.3,27.39,NW,315,0.0,1.1,78,0.00,,,0.07,WUHU216HW,2013-07-11 11:21:00,
2013-07-11 04:26:00,75.6,68.3,27.39,NW,315,0.0,0.0,78,0.00,,,0.07,WUHU216HW,2013-07-11 11:26:00,
2013-07-11 04:31:00,75.6,68.3,27.40,NW,315,0.0,0.0,78,0.00,,,0.07,WUHU216HW,2013-07-11 11:31:00,
2013-07-11 04:36:00,75.8,68.5,27.40,WNW,293,0.0,0.0,78,0.00,,,0.07,WUHU216HW,2013-07-11 11:36:00,
2013-07-11 04:41:00,75.6,68.3,27.40,WNW,293,0.0,0.0,78,0.00,,,0.07,WUHU216HW,2013-07-11 11:41:00,
2013-07-11 04:46:00,75.6,68.3,27.40,WNW,293,0.0,0.0,78,0.00,,,0.07,WUHU216HW,2013-07-11 11:46:00,
2013-07-11 04:51:00,75.6,68.0,27.40,WNW,293,0.0,0.0,77,0.00,,,0.07,WUHU216HW,2013-07-11 11:51:00,
2013-07-11 04:56:00,75.6,68.3,27.40,WNW,293,0.0,0.0,78,0.00,,,0.07,WUHU216HW,2013-07-11 11:56:00,
2013-07-11 05:01:00,75.6,68.3,27.40,NNW,338,0.0,0.4,78,0.00,,,0.07,WUHU216HW,2013-07-11 12:01:00,
2013-07-11 05:06:00,75.6,68.0,27.41,NNW,338,0.0,0.4,77,0.00,,,0.07,WUHU216HW,2013-07-11 12:06:00,
2013-07-11 05:11:00,75.4,67.8,27.40,NW,315,0.0,0.0,77,0.00,,,0.07,WUHU216HW,2013-07-11 12:11:00,
2013-07-11 05:16:00,75.4,67.3,27.40,NW,315,0.0,0.0,76,0.00,,,0.07,WUHU216HW,2013-07-11 12:16:00,
2013-07-11 05:21:00,75.4,67.3,27.41,North,0,0.0,0.0,76,0.00,,,0.07,WUHU216HW,2013-07-11 12:21:00,
2013-07-11 05:26:00,75.4,67.3,27.41,North,0,0.0,0.0,76,0.00,,,0.07,WUHU216HW,2013-07-11 12:26:00,
2013-07-11 05:31:00,75.4,67.3,27.41,North,0,0.0,0.0,76,0.00,,,0.07,WUHU216HW,2013-07-11 12:31:00,
2013-07-11 05:36:00,75.4,67.3,27.41,North,0,0.0,0.0,76,0.00,,,0.07,WUHU216HW,2013-07-11 12:36:00,
2013-07-11 05:41:00,75.4,67.0,27.41,North,0,0.0,0.0,75,0.00,,,0.07,WUHU216HW,2013-07-11 12:41:00,
2013-07-11 05:46:00,75.4,67.0,27.41,North,0,0.0,0.0,75,0.00,,,0.07,WUHU216HW,2013-07-11 12:46:00,
2013-07-11 05:51:00,75.6,66.7,27.41,North,0,0.0,0.0,74,0.00,,,0.07,WUHU216HW,2013-07-11 12:51:00,
2013-07-11 05:56:00,75.6,66.7,27.42,North,0,0.0,0.2,74,0.00,,,0.07,WUHU216HW,2013-07-11 12:56:00,
2013-07-11 06:01:00,75.6,66.7,27.42,NNW,338,0.0,0.4,74,0.00,,,0.07,WUHU216HW,2013-07-11 13:01:00,
2013-07-11 06:07:00,75.6,66.3,27.42,NNW,338,0.0,0.4,73,0.00,,,0.07,WUHU216HW,2013-07-11 13:07:00,
2013-07-11 06:12:00,75.8,66.5,27.42,NNW,338,0.0,0.2,73,0.00,,,0.07,WUHU216HW,2013-07-11 13:12:00,
2013-07-11 06:17:00,76.0,66.3,27.42,NNW,338,0.0,0.0,72,0.00,,,0.07,WUHU216HW,2013-07-11 13:17:00,
2013-07-11 06:22:00,76.0,66.3,27.42,North,0,0.4,1.1,72,0.00,,,0.07,WUHU216HW,2013-07-11 13:22:00,
2013-07-11 06:27:00,76.0,66.3,27.42,North,0,0.0,1.1,72,0.00,,,0.07,WUHU216HW,2013-07-11 13:27:00,
2013-07-11 06:32:00,76.1,66.1,27.42,North,0,0.0,0.4,71,0.00,,,0.07,WUHU216HW,2013-07-11 13:32:00,
2013-07-11 06:37:00,76.1,66.1,27.42,North,0,0.0,0.0,71,0.00,,,0.07,WUHU216HW,2013-07-11 13:37:00,
2013-07-11 06:43:00,76.3,66.2,27.42,NNE,23,0.4,0.7,71,0.00,,,0.07,WUHU216HW,2013-07-11 13:43:00,
2013-07-11 06:48:00,76.3,66.2,27.42,North,0,0.0,0.7,71,0.00,,,0.07,WUHU216HW,2013-07-11 13:48:00,
2013-07-11 06:53:00,76.5,66.1,27.42,North,0,0.0,0.2,70,0.00,,,0.07,WUHU216HW,2013-07-11 13:53:00,
2013-07-11 06:58:00,76.5,66.1,27.42,North,0,0.0,0.0,70,0.00,,,0.07,WUHU216HW,2013-07-11 13:58:00,
2013-07-11 07:03:00,76.7,66.2,27.42,North,0,0.0,0.0,70,0.00,,,0.07,WUHU216HW,2013-07-11 14:03:00,
2013-07-11 07:08:00,76.7,66.2,27.42,North,0,0.2,0.2,70,0.00,,,0.07,WUHU216HW,2013-07-11 14:08:00,
2013-07-11 07:13:00,76.9,66.0,27.42,NNW,338,0.0,0.7,69,0.00,,,0.07,WUHU216HW,2013-07-11 14:13:00,
2013-07-11 07:19:00,77.2,66.3,27.42,NNE,23,0.0,0.7,69,0.00,,,0.07,WUHU216HW,2013-07-11 14:19:00,
2013-07-11 07:24:00,77.4,66.5,27.42,West,270,0.7,0.7,69,0.00,,,0.07,WUHU216HW,2013-07-11 14:24:00,
2013-07-11 07:29:00,77.8,66.3,27.43,WSW,248,0.0,0.7,68,0.00,,,0.07,WUHU216HW,2013-07-11 14:29:00,
2013-07-11 07:34:00,78.1,66.2,27.43,NNW,338,0.4,1.1,67,0.00,,,0.07,WUHU216HW,2013-07-11 14:34:00,
2013-07-11 07:39:00,78.3,65.5,27.43,WNW,293,1.1,1.1,65,0.00,,,0.07,WUHU216HW,2013-07-11 14:39:00,
2013-07-11 07:44:00,78.5,65.7,27.43,WSW,248,0.9,1.1,65,0.00,,,0.07,WUHU216HW,2013-07-11 14:44:00,
2013-07-11 07:50:00,78.8,65.2,27.43,WNW,293,1.6,1.6,63,0.00,,,0.07,WUHU216HW,2013-07-11 14:50:00,
2013-07-11 07:55:00,79.0,64.9,27.43,WNW,293,0.0,1.6,62,0.00,,,0.07,WUHU216HW,2013-07-11 14:55:00,
2013-07-11 08:00:00,79.6,65.4,27.42,WNW,293,1.1,1.6,62,0.00,,,0.07,WUHU216HW,2013-07-11 15:00:00,
2013-07-11 08:06:00,79.7,65.6,27.43,West,270,1.3,1.6,62,0.00,,,0.07,WUHU216HW,2013-07-11 15:06:00,
2013-07-11 08:10:00,80.1,65.9,27.43,WNW,293,0.2,1.6,62,0.00,,,0.07,WUHU216HW,2013-07-11 15:10:00,
2013-07-11 08:15:00,80.5,66.7,27.42,NNE,23,2.5,2.5,63,0.00,,,0.07,WUHU216HW,2013-07-11 15:15:00,
2013-07-11 08:21:00,80.6,66.4,27.42,WNW,293,1.1,2.5,62,0.00,,,0.07,WUHU216HW,2013-07-11 15:21:00,
2013-07-11 08:26:00,81.0,66.3,27.42,West,270,0.4,2.5,61,0.00,,,0.07,WUHU216HW,2013-07-11 15:26:00,
2013-07-11 08:31:00,81.2,66.0,27.42,WSW,248,0.4,1.8,60,0.00,,,0.07,WUHU216HW,2013-07-11 15:31:00,
2013-07-11 08:36:00,81.5,66.3,27.42,SSW,203,0.4,1.8,60,0.00,,,0.07,WUHU216HW,2013-07-11 15:36:00,
2013-07-11 08:41:00,82.1,66.3,27.42,SSW,203,1.8,1.8,59,0.00,,,0.07,WUHU216HW,2013-07-11 15:41:00,
2013-07-11 08:46:00,82.3,65.4,27.42,WNW,293,1.8,2.2,57,0.00,,,0.07,WUHU216HW,2013-07-11 15:46:00,
2013-07-11 08:51:00,82.3,66.0,27.42,SW,225,0.2,2.2,58,0.00,,,0.07,WUHU216HW,2013-07-11 15:51:00,
2013-07-11 08:56:00,82.6,66.2,27.42,SW,225,1.1,1.8,58,0.00,,,0.07,WUHU216HW,2013-07-11 15:56:00,
2013-07-11 09:01:00,83.2,66.8,27.42,SW,225,1.1,1.8,58,0.00,,,0.07,WUHU216HW,2013-07-11 16:01:00,
2013-07-11 09:06:00,83.9,67.5,27.41,West,270,0.4,2.0,58,0.00,,,0.07,WUHU216HW,2013-07-11 16:06:00,
2013-07-11 09:11:00,83.7,65.3,27.41,West,270,1.1,2.7,54,0.00,,,0.07,WUHU216HW,2013-07-11 16:11:00,
2013-07-11 09:16:00,83.3,65.4,27.41,NW,315,0.2,2.7,55,0.00,,,0.07,WUHU216HW,2013-07-11 16:16:00,
2013-07-11 09:21:00,83.3,65.4,27.41,SSE,158,0.4,1.8,55,0.00,,,0.07,WUHU216HW,2013-07-11 16:21:00,
2013-07-11 09:27:00,83.5,65.6,27.41,NE,45,1.1,1.6,55,0.00,,,0.07,WUHU216HW,2013-07-11 16:27:00,
2013-07-11 09:32:00,84.1,66.2,27.41,West,270,1.3,1.3,55,0.00,,,0.07,WUHU216HW,2013-07-11 16:32:00,
2013-07-11 09:37:00,84.2,66.3,27.41,SSE,158,0.7,1.3,55,0.00,,,0.07,WUHU216HW,2013-07-11 16:37:00,
2013-07-11 09:42:00,84.6,67.1,27.41,SSW,203,1.1,1.6,56,0.00,,,0.07,WUHU216HW,2013-07-11 16:42:00,
2013-07-11 09:47:00,85.1,67.1,27.41,ESE,113,1.3,1.6,55,0.00,,,0.07,WUHU216HW,2013-07-11 16:47:00,
2013-07-11 09:52:00,85.3,66.2,27.41,WNW,293,1.1,1.6,53,0.00,,,0.07,WUHU216HW,2013-07-11 16:52:00,
2013-07-11 09:57:00,85.3,66.8,27.41,SE,135,0.4,1.8,54,0.00,,,0.07,WUHU216HW,2013-07-11 16:57:00,
2013-07-11 10:03:00,85.7,66.6,27.41,WNW,293,1.6,1.8,53,0.00,,,0.07,WUHU216HW,2013-07-11 17:03:00,
2013-07-11 10:08:00,86.0,66.9,27.41,SW,225,0.9,1.6,53,0.00,,,0.07,WUHU216HW,2013-07-11 17:08:00,
2013-07-11 10:13:00,86.6,67.4,27.41,SW,225,2.0,2.5,53,0.00,,,0.07,WUHU216HW,2013-07-11 17:13:00,
2013-07-11 10:18:00,87.1,66.3,27.41,West,270,1.6,2.5,50,0.00,,,0.07,WUHU216HW,2013-07-11 17:18:00,
2013-07-11 10:23:00,87.1,66.3,27.41,SW,225,2.0,2.0,50,0.00,,,0.07,WUHU216HW,2013-07-11 17:23:00,
2013-07-11 10:29:00,87.3,66.5,27.41,WSW,248,1.8,2.5,50,0.00,,,0.07,WUHU216HW,2013-07-11 17:29:00,
2013-07-11 10:34:00,87.3,66.5,27.40,WNW,293,0.2,2.5,50,0.00,,,0.07,WUHU216HW,2013-07-11 17:34:00,
2013-07-11 10:39:00,87.3,66.5,27.40,West,270,0.9,1.3,50,0.00,,,0.07,WUHU216HW,2013-07-11 17:39:00,
2013-07-11 10:44:00,87.5,67.1,27.40,WNW,293,1.8,2.9,51,0.00,,,0.07,WUHU216HW,2013-07-11 17:44:00,
2013-07-11 10:49:00,87.7,67.3,27.40,SW,225,1.3,2.9,51,0.00,,,0.07,WUHU216HW,2013-07-11 17:49:00,
2013-07-11 10:54:00,88.2,67.3,27.40,WSW,248,1.3,2.7,50,0.00,,,0.07,WUHU216HW,2013-07-11 17:54:00,
2013-07-11 10:59:00,88.6,67.6,27.40,SE,135,1.1,1.8,50,0.00,,,0.07,WUHU216HW,2013-07-11 17:59:00,
2013-07-11 11:04:00,88.7,67.2,27.40,West,270,2.5,2.5,49,0.00,,,0.07,WUHU216HW,2013-07-11 18:04:00,
2013-07-11 11:10:00,88.7,67.2,27.40,SSW,203,1.1,2.5,49,0.00,,,0.07,WUHU216HW,2013-07-11 18:10:00,
2013-07-11 11:15:00,89.1,66.8,27.40,SW,225,1.8,2.0,48,0.00,,,0.07,WUHU216HW,2013-07-11 18:15:00,
2013-07-11 11:20:00,89.3,67.0,27.40,North,0,2.2,2.2,48,0.00,,,0.07,WUHU216HW,2013-07-11 18:20:00,
2013-07-11 11:25:00,89.1,67.4,27.40,WSW,248,0.9,3.8,49,0.00,,,0.07,WUHU216HW,2013-07-11 18:25:00,
2013-07-11 11:30:00,89.6,68.0,27.40,SSE,158,1.1,3.8,49,0.00,,,0.07,WUHU216HW,2013-07-11 18:30:00,
2013-07-11 11:35:00,90.0,67.6,27.39,WSW,248,2.9,2.9,48,0.00,,,0.07,WUHU216HW,2013-07-11 18:35:00,
2013-07-11 11:40:00,90.0,67.0,27.39,SW,225,0.7,2.9,47,0.00,,,0.07,WUHU216HW,2013-07-11 18:40:00,
2013-07-11 11:45:00,90.0,66.3,27.39,NW,315,0.9,2.0,46,0.00,,,0.07,WUHU216HW,2013-07-11 18:45:00,
2013-07-11 11:50:00,90.4,65.3,27.39,NW,315,1.1,1.3,44,0.00,,,0.07,WUHU216HW,2013-07-11 18:50:00,
2013-07-11 11:55:00,90.2,66.5,27.39,North,0,2.5,3.4,46,0.00,,,0.07,WUHU216HW,2013-07-11 18:55:00,
2013-07-11 12:01:00,90.4,66.6,27.38,SW,225,1.8,3.8,46,0.00,,,0.07,WUHU216HW,2013-07-11 19:01:00,
2013-07-11 12:06:00,90.9,66.5,27.38,West,270,0.9,3.8,45,0.00,,,0.07,WUHU216HW,2013-07-11 19:06:00,
2013-07-11 12:12:00,91.1,66.0,27.37,NW,315,2.5,2.7,44,0.00,,,0.07,WUHU216HW,2013-07-11 19:12:00,
2013-07-11 12:17:00,90.7,65.7,27.37,NW,315,1.1,2.7,44,0.00,,,0.07,WUHU216HW,2013-07-11 19:17:00,
2013-07-11 12:22:00,90.7,66.3,27.37,WSW,248,1.1,2.7,45,0.00,,,0.07,WUHU216HW,2013-07-11 19:22:00,
2013-07-11 12:27:00,91.4,66.3,27.37,WSW,248,1.6,3.4,44,0.00,,,0.07,WUHU216HW,2013-07-11 19:27:00,
2013-07-11 12:32:00,92.0,66.8,27.37,SE,135,0.7,3.4,44,0.00,,,0.07,WUHU216HW,2013-07-11 19:32:00,
2013-07-11 12:37:00,92.5,66.6,27.37,West,270,1.1,2.5,43,0.00,,,0.07,WUHU216HW,2013-07-11 19:37:00,
2013-07-11 12:42:00,93.1,66.5,27.37,SW,225,2.5,2.5,42,0.00,,,0.07,WUHU216HW,2013-07-11 19:42:00,
2013-07-11 12:47:00,93.2,66.0,27.37,WSW,248,0.4,3.4,41,0.00,,,0.07,WUHU216HW,2013-07-11 19:47:00,
2013-07-11 12:52:00,93.2,66.0,27.36,WSW,248,3.4,3.8,41,0.00,,,0.07,WUHU216HW,2013-07-11 19:52:00,
2013-07-11 12:57:00,93.4,65.5,27.36,North,0,1.3,3.8,40,0.00,,,0.07,WUHU216HW,2013-07-11 19:57:00,
2013-07-11 13:02:00,93.6,65.7,27.36,SW,225,2.5,3.1,40,0.00,,,0.07,WUHU216HW,2013-07-11 20:02:00,
2013-07-11 13:07:00,94.1,66.2,27.35,WSW,248,5.4,5.4,40,0.00,,,0.07,WUHU216HW,2013-07-11 20:07:00,
2013-07-11 13:13:00,94.7,66.6,27.36,WSW,248,1.8,5.4,40,0.00,,,0.07,WUHU216HW,2013-07-11 20:13:00,
2013-07-11 13:18:00,95.0,66.2,27.36,South,180,2.5,3.8,39,0.00,,,0.07,WUHU216HW,2013-07-11 20:18:00,
2013-07-11 13:23:00,95.4,66.5,27.36,SSW,203,4.0,4.0,39,0.00,,,0.07,WUHU216HW,2013-07-11 20:23:00,
2013-07-11 13:28:00,95.4,66.5,27.35,SSE,158,1.1,4.0,39,0.00,,,0.07,WUHU216HW,2013-07-11 20:28:00,
2013-07-11 13:33:00,95.0,65.3,27.35,WSW,248,3.4,3.8,38,0.00,,,0.07,WUHU216HW,2013-07-11 20:33:00,
2013-07-11 13:38:00,94.3,65.5,27.35,WSW,248,4.5,4.5,39,0.00,,,0.07,WUHU216HW,2013-07-11 20:38:00,
2013-07-11 13:43:00,94.3,66.3,27.35,WSW,248,2.2,4.5,40,0.00,,,0.07,WUHU216HW,2013-07-11 20:43:00,
2013-07-11 13:49:00,94.1,66.2,27.35,SW,225,4.3,4.3,40,0.00,,,0.07,WUHU216HW,2013-07-11 20:49:00,
2013-07-11 13:54:00,93.2,66.6,27.35,SSW,203,4.0,4.9,42,0.00,,,0.07,WUHU216HW,2013-07-11 20:54:00,
2013-07-11 13:59:00,92.3,65.8,27.35,WSW,248,2.9,4.9,42,0.00,,,0.07,WUHU216HW,2013-07-11 20:59:00,
2013-07-11 14:04:00,91.6,66.5,27.34,West,270,4.9,5.4,44,0.00,,,0.07,WUHU216HW,2013-07-11 21:04:00,
2013-07-11 14:09:00,90.7,67.0,27.34,WNW,293,3.6,5.4,46,0.00,,,0.07,WUHU216HW,2013-07-11 21:09:00,
2013-07-11 14:14:00,89.6,67.3,27.34,WNW,293,5.4,5.6,48,0.00,,,0.07,WUHU216HW,2013-07-11 21:14:00,
2013-07-11 14:19:00,88.9,67.3,27.34,WSW,248,3.4,5.8,49,0.00,,,0.07,WUHU216HW,2013-07-11 21:19:00,
2013-07-11 14:24:00,88.6,67.6,27.34,WSW,248,4.9,5.8,50,0.00,,,0.07,WUHU216HW,2013-07-11 21:24:00,
2013-07-11 14:29:00,88.2,67.9,27.34,WSW,248,5.4,5.4,51,0.00,,,0.07,WUHU216HW,2013-07-11 21:29:00,
2013-07-11 14:34:00,88.2,67.9,27.34,West,270,4.0,5.4,51,0.00,,,0.07,WUHU216HW,2013-07-11 21:34:00,
2013-07-11 14:39:00,88.2,68.4,27.34,WSW,248,4.3,5.1,52,0.00,,,0.07,WUHU216HW,2013-07-11 21:39:00,
2013-07-11 14:45:00,88.6,68.1,27.34,SW,225,2.2,4.3,51,0.00,,,0.07,WUHU216HW,2013-07-11 21:45:00,
2013-07-11 14:50:00,88.7,67.8,27.34,West,270,3.4,3.8,50,0.00,,,0.07,WUHU216HW,2013-07-11 21:50:00,
2013-07-11 14:55:00,88.9,67.3,27.33,WSW,248,2.7,3.4,49,0.00,,,0.07,WUHU216HW,2013-07-11 21:55:00,
2013-07-11 15:00:00,89.1,68.1,27.33,West,270,3.1,4.0,50,0.00,,,0.07,WUHU216HW,2013-07-11 22:00:00,
2013-07-11 15:05:00,89.1,68.1,27.32,WNW,293,1.8,4.0,50,0.00,,,0.07,WUHU216HW,2013-07-11 22:05:00,
2013-07-11 15:11:00,89.3,67.6,27.33,West,270,3.4,3.6,49,0.00,,,0.07,WUHU216HW,2013-07-11 22:11:00,
2013-07-11 15:16:00,89.3,67.0,27.33,WNW,293,2.7,3.6,48,0.00,,,0.07,WUHU216HW,2013-07-11 22:16:00,
2013-07-11 15:21:00,89.6,67.3,27.34,WNW,293,2.2,2.7,48,0.00,,,0.07,WUHU216HW,2013-07-11 22:21:00,
2013-07-11 15:26:00,90.0,66.3,27.34,WSW,248,1.8,3.4,46,0.00,,,0.07,WUHU216HW,2013-07-11 22:26:00,
2013-07-11 15:31:00,90.0,67.0,27.34,WSW,248,2.5,3.4,47,0.00,,,0.07,WUHU216HW,2013-07-11 22:31:00,
2013-07-11 15:36:00,90.2,66.5,27.34,SW,225,1.1,2.7,46,0.00,,,0.07,WUHU216HW,2013-07-11 22:36:00,
2013-07-11 15:42:00,90.2,66.5,27.33,SW,225,1.1,2.7,46,0.00,,,0.07,WUHU216HW,2013-07-11 22:42:00,
2013-07-11 15:47:00,90.4,66.0,27.33,SSW,203,1.1,2.7,45,0.00,,,0.07,WUHU216HW,2013-07-11 22:47:00,
2013-07-11 15:52:00,90.4,66.0,27.32,SW,225,1.6,3.1,45,0.00,,,0.07,WUHU216HW,2013-07-11 22:52:00,
2013-07-11 15:57:00,90.4,66.0,27.32,WSW,248,1.3,2.9,45,0.00,,,0.07,WUHU216HW,2013-07-11 22:57:00,
2013-07-11 16:02:00,90.2,65.8,27.32,SE,135,3.1,3.1,45,0.00,,,0.07,WUHU216HW,2013-07-11 23:02:00,
2013-07-11 16:07:00,90.0,67.0,27.32,SE,135,2.7,3.1,47,0.00,,,0.07,WUHU216HW,2013-07-11 23:07:00,
2013-07-11 16:12:00,89.5,66.5,27.32,SE,135,1.1,2.7,47,0.00,,,0.07,WUHU216HW,2013-07-11 23:12:00,
2013-07-11 16:17:00,89.3,67.0,27.32,SE,135,0.2,1.8,48,0.00,,,0.07,WUHU216HW,2013-07-11 23:17:00,
2013-07-11 16:22:00,89.1,66.8,27.32,South,180,1.8,1.8,48,0.00,,,0.07,WUHU216HW,2013-07-11 23:22:00,
2013-07-11 16:27:00,89.1,66.8,27.32,SE,135,1.8,1.8,48,0.00,,,0.07,WUHU216HW,2013-07-11 23:27:00,
2013-07-11 16:32:00,88.9,66.7,27.32,ESE,113,1.8,2.5,48,0.00,,,0.07,WUHU216HW,2013-07-11 23:32:00,
2013-07-11 16:37:00,88.9,66.7,27.32,SE,135,2.5,2.9,48,0.00,,,0.07,WUHU216HW,2013-07-11 23:37:00,
2013-07-11 16:42:00,88.9,66.0,27.32,SE,135,1.3,3.1,47,0.00,,,0.07,WUHU216HW,2013-07-11 23:42:00,
2013-07-11 16:48:00,89.3,66.3,27.32,SSW,203,1.3,3.1,47,0.00,,,0.07,WUHU216HW,2013-07-11 23:48:00,
2013-07-11 16:53:00,89.8,66.2,27.32,SE,135,0.4,2.2,46,0.00,,,0.07,WUHU216HW,2013-07-11 23:53:00,
2013-07-11 16:58:00,90.0,66.3,27.32,SE,135,1.1,1.8,46,0.00,,,0.07,WUHU216HW,2013-07-11 23:58:00,
2013-07-11 17:04:00,90.5,66.8,27.32,SW,225,1.6,1.6,46,0.00,,,0.07,WUHU216HW,2013-07-12 00:04:00,
2013-07-11 17:09:00,90.9,66.5,27.31,WSW,248,1.1,1.8,45,0.00,,,0.07,WUHU216HW,2013-07-12 00:09:00,
2013-07-11 17:14:00,91.1,66.0,27.31,WNW,293,1.1,1.8,44,0.00,,,0.07,WUHU216HW,2013-07-12 00:14:00,
2013-07-11 17:19:00,91.1,66.0,27.31,SW,225,4.0,4.0,44,0.00,,,0.07,WUHU216HW,2013-07-12 00:19:00,
2013-07-11 17:24:00,90.9,65.8,27.31,SSW,203,0.0,4.0,44,0.00,,,0.07,WUHU216HW,2013-07-12 00:24:00,
2013-07-11 17:30:00,91.1,66.6,27.31,SW,225,0.7,1.8,45,0.00,,,0.07,WUHU216HW,2013-07-12 00:30:00,
2013-07-11 17:35:00,90.9,65.8,27.31,SSW,203,0.7,1.3,44,0.00,,,0.07,WUHU216HW,2013-07-12 00:35:00,
2013-07-11 17:40:00,90.7,65.0,27.31,West,270,0.4,1.3,43,0.00,,,0.07,WUHU216HW,2013-07-12 00:40:00,
2013-07-11 17:45:00,90.5,65.5,27.31,WSW,248,1.8,1.8,44,0.00,,,0.07,WUHU216HW,2013-07-12 00:45:00,
2013-07-11 17:50:00,90.4,65.3,27.32,WSW,248,0.4,1.8,44,0.00,,,0.07,WUHU216HW,2013-07-12 00:50:00,
2013-07-11 17:55:00,90.4,66.0,27.31,SSW,203,0.4,2.2,45,0.00,,,0.07,WUHU216HW,2013-07-12 00:55:00,
2013-07-11 18:00:00,90.4,66.0,27.31,WSW,248,1.1,2.2,45,0.00,,,0.07,WUHU216HW,2013-07-12 01:00:00,
2013-07-11 18:06:00,90.4,66.0,27.31,SSE,158,0.4,2.2,45,0.00,,,0.07,WUHU216HW,2013-07-12 01:06:00,
2013-07-11 18:11:00,90.2,65.8,27.31,SW,225,0.9,1.8,45,0.00,,,0.07,WUHU216HW,2013-07-12 01:11:00,
2013-07-11 18:16:00,90.0,65.7,27.31,SW,225,1.1,1.6,45,0.00,,,0.07,WUHU216HW,2013-07-12 01:16:00,
2013-07-11 18:21:00,89.8,65.5,27.31,South,180,0.0,1.6,45,0.00,,,0.07,WUHU216HW,2013-07-12 01:21:00,
2013-07-11 18:26:00,89.8,65.5,27.31,SSE,158,0.2,0.9,45,0.00,,,0.07,WUHU216HW,2013-07-12 01:26:00,
2013-07-11 18:31:00,89.6,65.3,27.31,ESE,113,0.0,0.9,45,0.00,,,0.07,WUHU216HW,2013-07-12 01:31:00,
2013-07-11 18:36:00,89.5,65.2,27.31,ENE,68,0.0,0.4,45,0.00,,,0.07,WUHU216HW,2013-07-12 01:36:00,
2013-07-11 18:41:00,89.3,65.7,27.31,SE,135,1.8,1.8,46,0.00,,,0.07,WUHU216HW,2013-07-12 01:41:00,
2013-07-11 18:47:00,89.3,65.7,27.31,SSE,158,0.4,1.8,46,0.00,,,0.07,WUHU216HW,2013-07-12 01:47:00,
2013-07-11 18:52:00,88.9,66.0,27.31,SE,135,0.4,0.7,47,0.00,,,0.07,WUHU216HW,2013-07-12 01:52:00,
2013-07-11 18:57:00,88.9,66.0,27.31,NE,45,0.7,0.7,47,0.00,,,0.07,WUHU216HW,2013-07-12 01:57:00,
2013-07-11 19:02:00,88.9,66.0,27.31,SE,135,0.7,1.1,47,0.00,,,0.07,WUHU216HW,2013-07-12 02:02:00,
2013-07-11 19:07:00,88.7,66.5,27.32,SE,135,0.7,1.8,48,0.00,,,0.07,WUHU216HW,2013-07-12 02:07:00,
2013-07-11 19:13:00,88.6,66.3,27.31,SSE,158,0.7,2.0,48,0.00,,,0.07,WUHU216HW,2013-07-12 02:13:00,
2013-07-11 19:18:00,88.4,66.8,27.32,ESE,113,1.6,2.0,49,0.00,,,0.07,WUHU216HW,2013-07-12 02:18:00,
2013-07-11 19:23:00,88.2,67.3,27.32,SE,135,1.1,1.6,50,0.00,,,0.07,WUHU216HW,2013-07-12 02:23:00,
2013-07-11 19:28:00,88.0,67.2,27.32,ENE,68,0.2,1.3,50,0.00,,,0.07,WUHU216HW,2013-07-12 02:28:00,
2013-07-11 19:33:00,87.8,67.0,27.32,NNE,23,2.2,2.2,50,0.00,,,0.07,WUHU216HW,2013-07-12 02:33:00,
2013-07-11 19:38:00,87.5,66.6,27.32,SSE,158,0.7,2.2,50,0.00,,,0.07,WUHU216HW,2013-07-12 02:38:00,
2013-07-11 19:43:00,87.5,67.1,27.32,North,0,0.4,1.8,51,0.00,,,0.07,WUHU216HW,2013-07-12 02:43:00,
2013-07-11 19:48:00,87.3,67.1,27.32,SE,135,0.0,0.4,51,0.00,,,0.07,WUHU216HW,2013-07-12 02:48:00,
2013-07-11 19:53:00,87.1,66.9,27.32,ESE,113,0.4,0.4,51,0.00,,,0.07,WUHU216HW,2013-07-12 02:53:00,
2013-07-11 19:58:00,87.1,66.9,27.32,ESE,113,0.0,0.4,51,0.00,,,0.07,WUHU216HW,2013-07-12 02:58:00,
2013-07-11 20:03:00,86.9,66.7,27.31,ESE,113,0.0,0.0,51,0.00,,,0.07,WUHU216HW,2013-07-12 03:03:00,
2013-07-11 20:09:00,86.9,67.2,27.31,ESE,113,0.0,0.0,52,0.00,,,0.07,WUHU216HW,2013-07-12 03:09:00,
2013-07-11 20:14:00,86.8,67.1,27.31,ESE,113,0.0,0.0,52,0.00,,,0.07,WUHU216HW,2013-07-12 03:14:00,
2013-07-11 20:19:00,86.8,67.1,27.31,ESE,113,0.0,0.0,52,0.00,,,0.07,WUHU216HW,2013-07-12 03:19:00,
2013-07-11 20:24:00,86.4,67.2,27.32,ESE,113,0.0,0.0,53,0.00,,,0.07,WUHU216HW,2013-07-12 03:24:00,
2013-07-11 20:29:00,86.2,67.1,27.31,ESE,113,0.0,0.0,53,0.00,,,0.07,WUHU216HW,2013-07-12 03:29:00,
2013-07-11 20:34:00,86.0,67.4,27.31,ESE,113,0.4,0.7,54,0.00,,,0.07,WUHU216HW,2013-07-12 03:34:00,
2013-07-11 20:39:00,85.7,67.2,27.31,South,180,0.4,1.8,54,0.00,,,0.07,WUHU216HW,2013-07-12 03:39:00,
2013-07-11 20:44:00,85.3,66.8,27.31,East,90,0.4,1.8,54,0.00,,,0.07,WUHU216HW,2013-07-12 03:44:00,
2013-07-11 20:49:00,85.3,66.8,27.31,East,90,0.2,0.9,54,0.00,,,0.07,WUHU216HW,2013-07-12 03:49:00,
2013-07-11 20:54:00,85.1,67.1,27.31,ESE,113,0.4,0.9,55,0.00,,,0.07,WUHU216HW,2013-07-12 03:54:00,
2013-07-11 20:59:00,85.0,67.0,27.31,NE,45,0.4,0.9,55,0.00,,,0.07,WUHU216HW,2013-07-12 03:59:00,
2013-07-11 21:01:00,85.0,67.0,27.31,East,90,0.0,0.9,55,0.00,,,0.07,WUHU216HW,2013-07-12 04:01:00,
2013-07-11 21:06:00,85.0,67.0,27.31,ESE,113,0.4,0.9,55,0.00,,,0.07,WUHU216HW,2013-07-12 04:06:00,
2013-07-11 21:11:00,84.6,66.7,27.32,ESE,113,0.4,1.1,55,0.00,,,0.07,WUHU216HW,2013-07-12 04:11:00,
2013-07-11 21:16:00,84.6,67.1,27.32,ESE,113,0.2,1.3,56,0.00,,,0.07,WUHU216HW,2013-07-12 04:16:00,
2013-07-11 21:21:00,84.4,67.1,27.32,ESE,113,0.4,2.0,56,0.00,,,0.07,WUHU216HW,2013-07-12 04:21:00,
2013-07-11 21:26:00,84.2,66.9,27.32,SE,135,0.4,2.0,56,0.00,,,0.07,WUHU216HW,2013-07-12 04:26:00,
2013-07-11 21:31:00,84.2,67.4,27.32,SE,135,0.9,1.8,57,0.00,,,0.07,WUHU216HW,2013-07-12 04:31:00,
2013-07-11 21:36:00,84.1,67.2,27.32,ESE,113,0.4,1.8,57,0.00,,,0.07,WUHU216HW,2013-07-12 04:36:00,
2013-07-11 21:41:00,84.1,67.2,27.32,South,180,0.7,1.6,57,0.00,,,0.07,WUHU216HW,2013-07-12 04:41:00,
2013-07-11 21:46:00,83.9,67.1,27.32,ESE,113,1.1,1.6,57,0.00,,,0.07,WUHU216HW,2013-07-12 04:46:00,
2013-07-11 21:51:00,83.9,67.1,27.32,NNE,23,0.0,1.1,57,0.00,,,0.07,WUHU216HW,2013-07-12 04:51:00,
2013-07-11 21:56:00,83.9,67.1,27.33,ENE,68,0.0,1.1,57,0.00,,,0.07,WUHU216HW,2013-07-12 04:56:00,
2013-07-11 22:01:00,83.9,67.1,27.33,NNE,23,0.4,1.1,57,0.00,,,0.07,WUHU216HW,2013-07-12 05:01:00,
2013-07-11 22:06:00,83.9,67.1,27.33,SE,135,0.0,0.4,57,0.00,,,0.07,WUHU216HW,2013-07-12 05:06:00,
2013-07-11 22:11:00,83.9,67.1,27.33,SSE,158,0.0,0.4,57,0.00,,,0.07,WUHU216HW,2013-07-12 05:11:00,
2013-07-11 22:16:00,83.9,67.1,27.33,SE,135,0.0,0.4,57,0.00,,,0.07,WUHU216HW,2013-07-12 05:16:00,
2013-07-11 22:21:00,83.7,66.9,27.33,SSE,158,0.0,0.4,57,0.00,,,0.07,WUHU216HW,2013-07-12 05:21:00,
2013-07-11 22:26:00,83.7,66.9,27.33,NE,45,0.0,0.4,57,0.00,,,0.07,WUHU216HW,2013-07-12 05:26:00,
2013-07-11 22:31:00,83.7,66.9,27.32,NNE,23,0.0,0.4,57,0.00,,,0.07,WUHU216HW,2013-07-12 05:31:00,
2013-07-11 22:36:00,83.5,67.1,27.33,NNE,23,0.0,0.4,58,0.00,,,0.07,WUHU216HW,2013-07-12 05:36:00,
2013-07-11 22:41:00,83.3,66.5,27.33,WNW,293,0.0,0.0,57,0.00,,,0.07,WUHU216HW,2013-07-12 05:41:00,
2013-07-11 22:46:00,83.3,66.5,27.33,SE,135,0.0,0.4,57,0.00,,,0.07,WUHU216HW,2013-07-12 05:46:00,
2013-07-11 22:51:00,83.2,66.3,27.33,SE,135,0.0,0.4,57,0.00,,,0.07,WUHU216HW,2013-07-12 05:51:00,
2013-07-11 22:56:00,83.2,66.8,27.33,SE,135,0.0,0.0,58,0.00,,,0.07,WUHU216HW,2013-07-12 05:56:00,
2013-07-11 23:01:00,83.0,66.6,27.33,SE,135,0.0,0.0,58,0.00,,,0.07,WUHU216HW,2013-07-12 06:01:00,
2013-07-11 23:06:00,82.8,66.4,27.33,SE,135,0.0,0.0,58,0.00,,,0.07,WUHU216HW,2013-07-12 06:06:00,
2013-07-11 23:11:00,82.8,67.0,27.33,SSE,158,0.0,0.0,59,0.00,,,0.07,WUHU216HW,2013-07-12 06:11:00,
2013-07-11 23:16:00,82.6,66.8,27.34,SSE,158,0.0,0.0,59,0.00,,,0.07,WUHU216HW,2013-07-12 06:16:00,
2013-07-11 23:21:00,82.4,66.6,27.34,SSE,158,0.0,0.0,59,0.00,,,0.07,WUHU216HW,2013-07-12 06:21:00,
2013-07-11 23:26:00,82.3,66.4,27.34,SSE,158,0.0,0.0,59,0.00,,,0.07,WUHU216HW,2013-07-12 06:26:00,
2013-07-11 23:31:00,82.1,66.3,27.34,SE,135,0.0,0.0,59,0.00,,,0.07,WUHU216HW,2013-07-12 06:31:00,
2013-07-11 23:36:00,82.1,66.3,27.34,NE,45,0.0,0.4,59,0.00,,,0.07,WUHU216HW,2013-07-12 06:36:00,
2013-07-11 23:41:00,81.9,66.2,27.34,East,90,0.0,0.4,59,0.00,,,0.07,WUHU216HW,2013-07-12 06:41:00,
2013-07-11 23:46:00,81.7,66.0,27.33,NNE,23,0.2,0.4,59,0.00,,,0.07,WUHU216HW,2013-07-12 06:46:00,
2013-07-11 23:51:00,81.7,66.0,27.34,East,90,0.0,0.9,59,0.00,,,0.07,WUHU216HW,2013-07-12 06:51:00,
2013-07-11 23:56:00,81.7,66.5,27.33,NE,45,0.9,0.9,60,0.00,,,0.07,WUHU216HW,2013-07-12 06:56:00,